Time;durP1;ratioP1;P1;durP2;ratioP2;P2;SDS_P1;SDS_P2;PMS_P1;PMS_P2;Temp;Humidity;BMP_temperature;BMP_pressure;BME280_temperature;BME280_humidity;BME280_pressure;Samples;Min_cycle;Max_cycle;Signal;HPM_P1;HPM_P2
2023/06/01 02:28:07;;;;;;;15.75;7.40;;;;;;;;;;6288057;22;20221;-93
2023/06/01 02:31:14;;;;;;;17.00;7.38;;;;;;;;;;6324870;22;20141;-95
2023/06/01 02:34:20;;;;;;;18.52;7.20;;;;;;;;;;6323052;22;20169;-93
2023/06/01 02:37:26;;;;;;;13.13;6.25;;;;;;;;;;6306149;22;20203;-94
2023/06/01 02:40:31;;;;;;;15.82;7.57;;;;;;;;;;6325164;22;20156;-93
2023/06/01 02:43:38;;;;;;;17.63;7.13;;;;;;;;;;6324275;22;20220;-93
2023/06/01 02:46:44;;;;;;;13.80;7.35;;;;;;;;;;6325956;22;20208;-93
2023/06/01 02:49:49;;;;;;;22.50;7.40;;;;;;;;;;6325639;22;20196;-93
2023/06/01 02:52:56;;;;;;;18.10;7.13;;;;;;;;;;6307714;22;20169;-90
2023/06/01 02:56:01;;;;;;;11.88;7.05;;;;;;;;;;6324909;22;20170;-91
2023/06/01 02:59:36;;;;;;;20.70;7.85;;;;;;;;;;6327945;22;20165;-92
2023/06/01 03:02:43;;;;;;;15.75;7.60;;;;;;;;;;6328147;22;20165;-94
2023/06/01 03:05:50;;;;;;;19.98;7.75;;;;;;;;;;6308758;22;20165;-92
2023/06/01 03:09:28;;;;;;;20.05;8.30;;;;;;;;;;6329362;22;20241;-94
2023/06/01 03:12:37;;;;;;;21.13;8.18;;;;;;;;;;6324329;22;20501;-92
2023/06/01 03:15:44;;;;;;;21.80;8.40;;;;;;;;;;6306112;22;20168;-93
2023/06/01 03:19:26;;;;;;;19.13;8.32;;;;;;;;;;6304633;22;20187;-93
2023/06/01 03:22:34;;;;;;;19.35;8.13;;;;;;;;;;6325015;22;20254;-95
2023/06/01 03:25:39;;;;;;;19.98;7.63;;;;;;;;;;6306218;22;20234;-93
2023/06/01 03:33:06;;;;;;;15.98;7.35;;;;;;;;;;6323949;22;20192;-93
2023/06/01 03:36:12;;;;;;;17.38;7.63;;;;;;;;;;6305985;22;20172;-93
2023/06/01 03:39:17;;;;;;;21.27;7.32;;;;;;;;;;6303857;22;20159;-94
2023/06/01 03:42:23;;;;;;;22.02;6.70;;;;;;;;;;6306056;22;20165;-94
2023/06/01 03:45:29;;;;;;;17.50;7.68;;;;;;;;;;6304273;22;20165;-94
2023/06/01 03:48:35;;;;;;;20.80;7.97;;;;;;;;;;6323611;22;20161;-94
2023/06/01 03:51:40;;;;;;;13.50;6.68;;;;;;;;;;6305067;22;20164;-91
2023/06/01 03:54:46;;;;;;;52.42;8.50;;;;;;;;;;6306669;22;20150;-93
2023/06/01 03:58:07;;;;;;;45.70;7.90;;;;;;;;;;6306851;22;20146;-94
2023/06/01 04:01:19;;;;;;;31.05;7.80;;;;;;;;;;6306787;22;20152;-90
2023/06/01 04:04:30;;;;;;;20.30;8.02;;;;;;;;;;6305935;22;20272;-92
2023/06/01 04:07:35;;;;;;;33.00;7.90;;;;;;;;;;6306984;22;20157;-93
2023/06/01 04:10:41;;;;;;;21.30;7.40;;;;;;;;;;6308639;22;20188;-90
2023/06/01 04:13:46;;;;;;;19.75;7.28;;;;;;;;;;6309080;22;20157;-93
2023/06/01 04:16:52;;;;;;;28.15;7.30;;;;;;;;;;6306534;22;20168;-91
2023/06/01 04:19:59;;;;;;;44.25;8.40;;;;;;;;;;6308078;22;20165;-92
2023/06/01 21:26:18;;;;;;;11.90;6.05;;;;;;;;;;6291964;22;20198;-95
2023/06/01 21:29:23;;;;;;;10.35;5.22;;;;;;;;;;6309239;22;20156;-94
2023/06/01 21:32:29;;;;;;;10.20;5.65;;;;;;;;;;6306113;22;20158;-93
2023/06/01 21:35:34;;;;;;;15.90;6.97;;;;;;;;;;6308063;22;20184;-93
2023/06/01 21:38:40;;;;;;;9.70;5.57;;;;;;;;;;6326145;22;20225;-92
2023/06/01 21:41:47;;;;;;;13.20;6.07;;;;;;;;;;6326913;22;20192;-92
2023/06/01 21:44:53;;;;;;;14.80;5.65;;;;;;;;;;6309331;22;20162;-92
2023/06/01 21:48:00;;;;;;;10.90;5.43;;;;;;;;;;6308517;22;20210;-94
2023/06/01 21:51:06;;;;;;;10.90;5.25;;;;;;;;;;6326599;22;20196;-93
2023/06/01 21:54:12;;;;;;;10.80;4.93;;;;;;;;;;6332768;22;20145;-92
2023/06/01 22:18:00;;;;;;;12.15;5.95;;;;;;;;;;6306633;22;20209;-84
